RKJK/KUV METAR and TAF weather

Enter ICAO airport designator
Station Type Date Time Source
RKJK METAR 2019/08/23 17:56 UTC NOAA

RKJK 231756Z AUTO 31004KT 10SM CLR 23/20 A2982 RMK AO2 SLP102 T02290200 10240 20216 56004 $


Station Type Date Time Source
RKJK Decoded METAR 2019/08/23 17:56 UTC NOAA

Station name not available
Aug 23, 2019 - 01:56 PM EDT / 2019.08.23 1756 UTC
Wind: from the NW (310 degrees) at 5 MPH (4 KT):0
Visibility: 10 mile(s):0
Sky conditions: clear
Temperature: 73.2 F (22.9 C)
Dew Point: 68.0 F (20.0 C)
Relative Humidity: 83%
Pressure (altimeter): 29.82 in. Hg (1009 hPa)
Pressure tendency: 0.01 inches (0.4 hPa) lower than three hours ago
ob: RKJK 231756Z AUTO 31004KT 10SM CLR 23/20 A2982 RMK AO2 SLP102 T02290200 10240 20216 56004
cycle: 18

Station Type Date Time Source
RKJK TAF 2019/08/23 15:06 UTC NOAA

TAF RKJK 231500Z 2315/2421 29009KT 9999 FEW020 FEW200 QNH2973INS
BECMG 2318/2319 30009KT 8000 BR SCT200 QNH2978INS
BECMG 2401/2402 32009KT 9999 NSW SCT030 SCT200 QNH2979INS TX30/2405Z TN24/2316Z

Example: see airport list